ケアンズ の空港の天気 - METARとTAF

ケアンズ国際空港 ( YBCS / CNS ) - オーストラリア クイーンズランド州ケアンズ
飛行場実況気象(Metar)
観測時間09/26 22:30 AEST (09/26 12:30 UTC)
風向・風速静穏 0m/s
視程10km以上
天気現象
少しの雲 雲底高度 760m
気温20℃
湿度94%
気圧1015hPa
METARYBCS 261230Z 00000KT 9999 FEW025 20/19 Q1015 NOSIG
過去の天気等 Google飛行場航空写真 Wunderground天気予報

過去48時間のMETAR

飛行場予報(TAF)
発表時間: 9/26 21:10 AEST (9/26 11:10 UTC)
予報対象時間: 26日22時 AEST ~ 27日22時 AEST
風向・風速南南東 4m/s
視程10km以上
少しの雲 雲底高度 760m
27日11時 AEST から
風向・風速北東 6m/s
視程10km以上
少しの雲 雲底高度 910m
27日18時 AEST から
風向・風速南南東 4m/s
視程10km以上
少しの雲 雲底高度 760m
TAF YBCS 261110Z 2612/2712 16008KT 9999 FEW025
FM270100 04012KT 9999 FEW030
FM270800 16008KT 9999 FEW025